createdAt,value
2017-12-21T00:00:15.366Z,15.20
2017-12-21T00:02:43.565Z,15.77
2017-12-21T00:05:11.783Z,15.70
2017-12-21T00:07:40.750Z,15.97
2017-12-21T00:10:08.958Z,16.30
2017-12-21T00:12:36.366Z,16.13
2017-12-21T00:15:03.810Z,17.30
2017-12-21T00:17:32.020Z,17.40
2017-12-21T00:19:59.418Z,15.60
2017-12-21T00:22:39.616Z,16.50
2017-12-21T00:25:07.026Z,17.00
2017-12-21T00:27:34.438Z,16.90
2017-12-21T00:30:02.610Z,16.03
2017-12-21T00:32:30.822Z,17.50
2017-12-21T00:34:58.994Z,17.70
2017-12-21T00:37:27.225Z,17.00
2017-12-21T00:39:54.638Z,16.17
2017-12-21T00:42:22.812Z,17.10
2017-12-21T00:44:50.220Z,16.60
2017-12-21T00:47:17.688Z,16.13
2017-12-21T00:49:45.098Z,16.97
2017-12-21T00:52:12.514Z,17.03
2017-12-21T00:54:40.732Z,15.83
2017-12-21T00:57:08.201Z,16.10
2017-12-21T00:59:35.593Z,16.67
2017-12-21T01:02:03.058Z,16.43
2017-12-21T01:04:30.421Z,17.00
2017-12-21T01:06:57.849Z,17.30
2017-12-21T01:09:25.325Z,17.10
2017-12-21T01:11:52.744Z,16.27
2017-12-21T01:14:20.273Z,15.97
2017-12-21T01:16:47.708Z,17.13
2017-12-21T01:19:15.919Z,17.10
2017-12-21T01:21:43.337Z,16.70
2017-12-21T01:24:11.513Z,16.40
2017-12-21T01:26:38.968Z,16.80
2017-12-21T01:29:06.379Z,16.97
2017-12-21T01:31:33.786Z,16.50
2017-12-21T01:34:01.250Z,16.60
2017-12-21T01:36:28.672Z,16.33
2017-12-21T01:38:56.177Z,15.63
2017-12-21T01:41:23.615Z,17.07
2017-12-21T01:43:51.070Z,16.20
2017-12-21T01:46:18.478Z,17.00
2017-12-21T01:48:45.897Z,16.77
2017-12-21T01:51:13.329Z,17.53
2017-12-21T01:53:40.798Z,16.67
2017-12-21T01:56:08.289Z,18.23
2017-12-21T01:58:35.699Z,16.73
2017-12-21T02:01:03.874Z,17.40
2017-12-21T02:03:31.300Z,15.60
2017-12-21T02:05:58.745Z,17.90
2017-12-21T02:08:26.163Z,17.27
2017-12-21T02:10:53.592Z,16.67
2017-12-21T02:13:21.020Z,18.00
2017-12-21T02:15:49.215Z,17.30
2017-12-21T02:18:17.398Z,17.10
2017-12-21T02:20:45.582Z,16.60
2017-12-21T02:23:13.762Z,17.07
2017-12-21T02:25:41.168Z,17.90
2017-12-21T02:28:08.630Z,17.23
2017-12-21T02:30:36.111Z,17.50
2017-12-21T02:33:03.573Z,18.03
2017-12-21T02:35:31.742Z,16.10
2017-12-21T02:37:59.200Z,16.37
2017-12-21T02:40:27.375Z,15.47
2017-12-21T02:42:54.883Z,15.87
2017-12-21T02:45:22.385Z,15.80
2017-12-21T02:47:49.805Z,14.40
2017-12-21T02:50:17.304Z,15.70
2017-12-21T02:52:44.706Z,16.40
2017-12-21T02:55:12.231Z,16.40
2017-12-21T02:57:39.703Z,14.80
2017-12-21T03:00:07.097Z,15.30
2017-12-21T03:02:34.511Z,14.93
2017-12-21T03:05:02.006Z,17.07
2017-12-21T03:07:29.421Z,16.10
2017-12-21T03:09:56.957Z,15.83
2017-12-21T03:12:24.358Z,15.90
2017-12-21T03:14:51.778Z,15.60
2017-12-21T03:17:19.242Z,15.37
2017-12-21T03:19:46.665Z,15.33
2017-12-21T03:22:14.184Z,16.13
2017-12-21T03:24:41.662Z,15.07
2017-12-21T03:27:09.086Z,14.87
2017-12-21T03:29:37.316Z,14.60
2017-12-21T03:32:04.726Z,13.93
2017-12-21T03:34:32.145Z,13.97
2017-12-21T03:36:59.614Z,14.17
2017-12-21T03:39:27.054Z,13.83
2017-12-21T03:41:55.227Z,14.10
2017-12-21T03:44:22.647Z,14.73
2017-12-21T03:46:50.061Z,14.47
2017-12-21T03:49:17.572Z,14.93
2017-12-21T03:51:45.044Z,13.40
2017-12-21T03:54:12.453Z,13.20
2017-12-21T03:56:39.881Z,14.23
2017-12-21T03:59:07.346Z,14.27
2017-12-21T04:01:34.778Z,13.67
2017-12-21T04:04:02.975Z,13.87
2017-12-21T04:06:31.157Z,12.23
2017-12-21T04:08:59.334Z,12.50
2017-12-21T04:11:27.524Z,12.70
2017-12-21T04:13:54.955Z,11.37
2017-12-21T04:16:22.417Z,11.57
2017-12-21T04:18:49.858Z,12.10
2017-12-21T04:21:17.321Z,11.13
2017-12-21T04:23:44.794Z,10.53
2017-12-21T04:26:12.222Z,11.00
2017-12-21T04:28:39.646Z,9.43
2017-12-21T04:31:07.055Z,10.40
2017-12-21T04:33:34.486Z,9.33
2017-12-21T04:36:01.906Z,10.00
2017-12-21T04:38:30.090Z,9.00
2017-12-21T04:40:58.312Z,9.63
2017-12-21T04:43:25.750Z,8.73
2017-12-21T04:48:20.155Z,9.10
2017-12-21T04:50:47.554Z,8.77
2017-12-21T04:53:15.730Z,9.07
2017-12-21T04:55:43.137Z,8.67
2017-12-21T04:58:10.598Z,8.20
2017-12-21T05:00:38.075Z,8.80
2017-12-21T05:03:05.517Z,8.43
2017-12-21T05:05:33.711Z,8.80
2017-12-21T05:08:01.146Z,9.27
2017-12-21T05:10:29.336Z,9.20
2017-12-21T05:12:57.509Z,9.03
2017-12-21T05:15:24.958Z,9.57
2017-12-21T05:17:52.374Z,9.57
2017-12-21T05:20:20.586Z,8.90
2017-12-21T05:22:48.045Z,9.60
2017-12-21T05:25:15.487Z,8.20
2017-12-21T05:27:43.707Z,8.80
2017-12-21T05:30:11.134Z,9.40
2017-12-21T05:32:39.315Z,9.47
2017-12-21T05:35:06.748Z,9.00
2017-12-21T05:37:34.149Z,8.60
2017-12-21T05:40:01.574Z,9.10
2017-12-21T05:42:29.021Z,9.30
2017-12-21T05:44:56.807Z,10.10
2017-12-21T05:47:24.392Z,9.53
2017-12-21T05:49:51.908Z,9.50
2017-12-21T05:52:19.575Z,10.23
2017-12-21T05:54:47.773Z,9.53
2017-12-21T05:57:15.211Z,10.27
2017-12-21T05:59:42.647Z,9.90
2017-12-21T06:02:10.108Z,9.70
2017-12-21T06:04:37.588Z,10.03
2017-12-21T06:07:04.997Z,9.70
2017-12-21T06:09:33.950Z,10.10
2017-12-21T06:12:01.414Z,11.07
2017-12-21T06:14:28.842Z,11.87
2017-12-21T06:16:56.272Z,10.53
2017-12-21T06:19:23.832Z,10.67
2017-12-21T06:21:51.303Z,11.10
2017-12-21T06:24:18.774Z,10.60
2017-12-21T06:26:46.183Z,11.73
2017-12-21T06:29:13.602Z,11.50
2017-12-21T06:31:41.028Z,12.20
2017-12-21T06:34:08.450Z,11.57
2017-12-21T06:36:35.857Z,11.70
2017-12-21T06:39:03.295Z,12.20
2017-12-21T06:41:30.750Z,11.53
2017-12-21T06:43:58.176Z,11.07
2017-12-21T06:46:26.370Z,11.30
2017-12-21T06:48:54.562Z,12.30
2017-12-21T06:51:22.827Z,11.90
2017-12-21T06:53:50.194Z,13.03
2017-12-21T06:56:17.616Z,11.70
2017-12-21T06:58:45.090Z,11.23
2017-12-21T07:01:12.521Z,11.83
2017-12-21T07:03:39.950Z,10.53
2017-12-21T07:06:07.372Z,9.37
2017-12-21T07:08:34.793Z,10.53
2017-12-21T07:11:02.313Z,9.97
2017-12-21T07:13:29.726Z,9.60
2017-12-21T07:15:57.183Z,9.30
2017-12-21T07:18:24.590Z,10.30
2017-12-21T07:20:52.762Z,9.53
2017-12-21T07:23:20.215Z,9.20
2017-12-21T07:25:47.766Z,9.93
2017-12-21T07:28:15.146Z,9.93
2017-12-21T07:30:42.582Z,8.27
2017-12-21T07:33:09.996Z,9.30
2017-12-21T07:35:37.517Z,9.77
2017-12-21T07:38:04.930Z,9.77
2017-12-21T07:40:32.362Z,9.40
2017-12-21T07:42:59.769Z,9.77
2017-12-21T07:45:27.180Z,9.63
2017-12-21T07:47:55.379Z,9.13
2017-12-21T07:50:22.782Z,9.13
2017-12-21T07:52:50.264Z,9.30
2017-12-21T07:55:17.676Z,9.80
2017-12-21T07:57:45.110Z,9.20
2017-12-21T08:00:12.533Z,9.07
2017-12-21T08:02:39.990Z,8.87
2017-12-21T08:05:07.457Z,8.70
2017-12-21T08:07:35.675Z,8.27
2017-12-21T08:10:03.113Z,8.20
2017-12-21T08:12:31.282Z,8.63
2017-12-21T08:14:59.458Z,8.70
2017-12-21T08:17:27.650Z,8.40
2017-12-21T08:19:55.826Z,8.40
2017-12-21T08:22:24.062Z,8.50
2017-12-21T08:24:51.547Z,8.10
2017-12-21T08:27:18.990Z,8.50
2017-12-21T08:29:46.398Z,8.70
2017-12-21T08:32:13.804Z,8.30
2017-12-21T08:34:41.265Z,8.77
2017-12-21T08:37:09.460Z,8.43
2017-12-21T08:39:36.961Z,8.00
2017-12-21T08:42:04.370Z,8.07
2017-12-21T08:44:31.818Z,8.40
2017-12-21T08:46:59.281Z,8.30
2017-12-21T08:49:26.697Z,8.13
2017-12-21T08:51:54.106Z,8.67
2017-12-21T08:54:21.514Z,7.90
2017-12-21T08:56:49.839Z,7.57
2017-12-21T08:59:17.989Z,7.73
2017-12-21T09:01:46.169Z,8.10
2017-12-21T09:04:13.602Z,7.97
2017-12-21T09:06:41.027Z,7.40
2017-12-21T09:09:09.326Z,7.43
2017-12-21T09:11:36.765Z,7.83
2017-12-21T09:14:04.166Z,6.63
2017-12-21T09:16:31.642Z,6.20
2017-12-21T09:18:59.102Z,6.63
2017-12-21T09:21:26.531Z,6.43
2017-12-21T09:23:53.950Z,6.20
2017-12-21T09:26:21.361Z,6.17
2017-12-21T09:28:48.806Z,7.23
2017-12-21T09:31:16.259Z,7.53
2017-12-21T09:33:43.674Z,6.80
2017-12-21T09:36:11.105Z,6.80
2017-12-21T09:38:38.652Z,7.53
2017-12-21T09:41:06.810Z,7.90
2017-12-21T09:43:35.013Z,8.30
2017-12-21T09:46:03.173Z,7.10
2017-12-21T09:48:31.406Z,7.43
2017-12-21T09:50:58.823Z,7.17
2017-12-21T09:53:26.259Z,7.03
2017-12-21T09:55:53.653Z,7.23
2017-12-21T09:58:21.066Z,8.27
2017-12-21T10:00:48.482Z,7.40
2017-12-21T10:03:15.890Z,7.57
2017-12-21T10:05:44.204Z,7.00
2017-12-21T10:08:12.356Z,7.70
2017-12-21T10:10:40.598Z,7.80
2017-12-21T10:13:08.002Z,7.47
2017-12-21T10:15:35.422Z,7.70
2017-12-21T10:18:02.871Z,8.50
2017-12-21T10:20:30.278Z,8.33
2017-12-21T10:22:57.690Z,8.40
2017-12-21T10:25:25.900Z,9.00
2017-12-21T10:27:53.310Z,8.90
2017-12-21T10:30:20.723Z,9.17
2017-12-21T10:32:48.198Z,9.20
2017-12-21T10:35:15.626Z,9.00
2017-12-21T10:37:43.077Z,8.97
2017-12-21T10:40:10.493Z,9.40
2017-12-21T10:42:37.894Z,9.07
2017-12-21T10:45:05.327Z,8.50
2017-12-21T10:47:32.812Z,8.50
2017-12-21T10:50:00.229Z,9.37
2017-12-21T10:52:27.753Z,8.30
2017-12-21T10:54:55.177Z,8.83
2017-12-21T10:57:23.355Z,8.87
2017-12-21T10:59:50.787Z,8.00
2017-12-21T11:02:18.225Z,7.70
2017-12-21T11:04:46.391Z,8.40
2017-12-21T11:07:14.585Z,7.47
2017-12-21T11:09:42.755Z,7.57
2017-12-21T11:12:10.177Z,7.10
2017-12-21T11:14:37.598Z,6.70
2017-12-21T11:17:05.014Z,6.83
2017-12-21T11:19:32.422Z,6.20
2017-12-21T11:21:59.864Z,7.37
2017-12-21T11:24:27.283Z,6.70
2017-12-21T11:26:54.794Z,6.43
2017-12-21T11:29:22.261Z,6.30
2017-12-21T11:31:49.666Z,6.33
2017-12-21T11:34:17.094Z,5.77
2017-12-21T11:36:44.512Z,4.90
2017-12-21T11:39:11.926Z,5.50
2017-12-21T11:41:39.322Z,6.00
2017-12-21T11:44:06.752Z,5.67
2017-12-21T11:46:34.229Z,5.77
2017-12-21T11:49:01.698Z,5.10
2017-12-21T11:51:29.166Z,5.40
2017-12-21T11:53:56.643Z,5.50
2017-12-21T11:56:24.799Z,5.10
2017-12-21T11:58:52.966Z,5.77
2017-12-21T12:01:20.502Z,5.43
2017-12-21T12:03:47.976Z,5.23
2017-12-21T12:06:15.401Z,5.33
2017-12-21T12:08:43.601Z,5.70
2017-12-21T12:11:11.026Z,5.87
2017-12-21T12:13:38.435Z,5.47
2017-12-21T12:16:05.911Z,5.30
2017-12-21T12:18:33.320Z,6.43
2017-12-21T12:21:00.747Z,6.00
2017-12-21T12:23:28.145Z,6.90
2017-12-21T12:25:55.568Z,6.33
2017-12-21T12:28:23.047Z,7.67
2017-12-21T12:30:50.452Z,7.93
2017-12-21T12:33:17.878Z,7.67
2017-12-21T12:35:45.294Z,8.43
2017-12-21T12:38:12.726Z,8.40
2017-12-21T12:40:40.136Z,8.10
2017-12-21T12:43:07.548Z,8.70
2017-12-21T12:45:35.134Z,10.13
2017-12-21T12:48:02.523Z,9.43
2017-12-21T12:50:29.951Z,10.47
2017-12-21T12:52:58.125Z,9.83
2017-12-21T12:55:26.352Z,10.90
2017-12-21T12:57:54.494Z,11.80
2017-12-21T13:00:22.730Z,10.73
2017-12-21T13:02:50.165Z,11.87
2017-12-21T13:05:18.562Z,10.93
2017-12-21T13:07:46.045Z,11.13
2017-12-21T13:10:13.449Z,11.90
2017-12-21T13:12:41.705Z,12.30
2017-12-21T13:15:10.120Z,12.23
2017-12-21T13:17:37.552Z,11.13
2017-12-21T13:20:05.012Z,11.30
2017-12-21T13:22:32.422Z,12.97
2017-12-21T13:24:59.858Z,13.53
2017-12-21T13:27:28.034Z,13.57
2017-12-21T13:29:55.467Z,14.10
2017-12-21T13:32:23.087Z,13.80
2017-12-21T13:34:51.241Z,13.33
2017-12-21T13:37:19.421Z,12.63
2017-12-21T13:39:47.746Z,12.33
2017-12-21T13:42:15.951Z,12.47
2017-12-21T13:44:43.355Z,13.63
2017-12-21T13:47:10.790Z,14.00
2017-12-21T13:49:38.228Z,13.20
2017-12-21T13:52:05.702Z,13.93
2017-12-21T13:54:33.128Z,12.93
2017-12-21T13:57:00.525Z,12.63
2017-12-21T13:59:28.016Z,12.20
2017-12-21T14:01:56.177Z,12.43
2017-12-21T14:04:24.362Z,11.30
2017-12-21T14:06:52.582Z,11.40
2017-12-21T14:09:19.987Z,10.37
2017-12-21T14:11:47.394Z,9.90
2017-12-21T14:14:14.822Z,10.53
2017-12-21T14:16:42.354Z,10.37
2017-12-21T14:19:09.780Z,11.17
2017-12-21T14:21:37.957Z,10.30
2017-12-21T14:24:06.133Z,10.17
2017-12-21T14:26:33.577Z,10.00
2017-12-21T14:29:00.993Z,10.37
2017-12-21T14:31:29.200Z,11.73
2017-12-21T14:33:57.391Z,10.10
2017-12-21T14:36:24.859Z,10.10
2017-12-21T14:38:53.022Z,10.30
2017-12-21T14:41:20.528Z,9.77
2017-12-21T14:43:47.951Z,9.63
2017-12-21T14:46:16.167Z,9.70
2017-12-21T14:48:43.565Z,10.60
2017-12-21T14:51:11.217Z,11.00
2017-12-21T14:53:38.676Z,11.37
2017-12-21T14:56:06.107Z,12.23
2017-12-21T14:58:33.518Z,12.13
2017-12-21T15:01:00.942Z,13.43
2017-12-21T15:03:28.367Z,12.83
2017-12-21T15:05:55.896Z,12.80
2017-12-21T15:08:24.067Z,13.00
2017-12-21T15:10:51.579Z,13.40
2017-12-21T15:13:18.987Z,14.10
2017-12-21T15:15:46.898Z,13.43
2017-12-21T15:18:15.089Z,14.30
2017-12-21T15:20:43.282Z,13.00
2017-12-21T15:23:10.727Z,14.97
2017-12-21T15:25:38.127Z,14.60
2017-12-21T15:28:05.597Z,15.43
2017-12-21T15:30:33.085Z,15.07
2017-12-21T15:33:00.506Z,15.37
2017-12-21T15:35:27.925Z,15.57
2017-12-21T15:37:55.354Z,15.50
2017-12-21T15:40:22.763Z,15.60
2017-12-21T15:42:50.209Z,16.93
2017-12-21T15:45:18.365Z,16.80
2017-12-21T15:47:46.552Z,16.83
2017-12-21T15:50:14.753Z,17.10
2017-12-21T15:52:42.178Z,17.13
2017-12-21T15:55:09.606Z,16.40
2017-12-21T15:57:37.170Z,14.50
2017-12-21T16:00:05.321Z,15.27
2017-12-21T16:02:33.526Z,14.20
2017-12-21T16:05:00.940Z,15.10
2017-12-21T16:07:28.355Z,14.20
2017-12-21T16:09:56.581Z,14.23
2017-12-21T16:12:23.999Z,14.07
2017-12-21T16:14:51.402Z,14.30
2017-12-21T16:17:18.814Z,14.80
2017-12-21T16:19:46.337Z,14.90
2017-12-21T16:22:13.810Z,14.70
2017-12-21T16:24:42.355Z,13.90
2017-12-21T16:27:09.874Z,15.10
2017-12-21T16:29:37.297Z,14.47
2017-12-21T16:32:04.705Z,15.17
2017-12-21T16:34:32.178Z,14.50
2017-12-21T16:36:59.586Z,14.60
2017-12-21T16:39:27.005Z,14.23
2017-12-21T16:41:54.421Z,14.80
2017-12-21T16:44:21.842Z,15.83
2017-12-21T16:46:49.257Z,14.47
2017-12-21T16:49:16.682Z,15.50
2017-12-21T16:51:44.099Z,16.07
2017-12-21T16:54:11.538Z,15.60
2017-12-21T16:56:39.007Z,15.87
2017-12-21T16:59:06.462Z,16.07
2017-12-21T17:01:33.870Z,14.97
2017-12-21T17:04:01.293Z,16.40
2017-12-21T17:06:28.741Z,15.87
2017-12-21T17:08:56.950Z,16.40
2017-12-21T17:11:24.414Z,16.07
2017-12-21T17:13:51.835Z,16.07
2017-12-21T17:16:19.251Z,16.17
2017-12-21T17:18:46.659Z,16.10
2017-12-21T17:21:14.097Z,15.43
2017-12-21T17:23:41.521Z,15.80
2017-12-21T17:26:09.713Z,16.13
2017-12-21T17:28:37.920Z,15.27
2017-12-21T17:31:05.427Z,16.63
2017-12-21T17:33:32.810Z,16.07
2017-12-21T17:36:00.451Z,17.23
2017-12-21T17:38:27.910Z,16.03
2017-12-21T17:40:55.481Z,18.20
2017-12-21T17:43:22.963Z,16.83
2017-12-21T17:45:50.371Z,18.23
2017-12-21T17:48:17.804Z,17.77
2017-12-21T17:50:45.368Z,17.40
2017-12-21T17:53:12.931Z,20.50
2017-12-21T17:55:40.410Z,17.67
2017-12-21T17:58:07.837Z,19.00
2017-12-21T18:00:35.246Z,18.70
2017-12-21T18:03:02.671Z,19.10
2017-12-21T18:05:30.901Z,19.50
2017-12-21T18:07:58.318Z,19.23
2017-12-21T18:10:26.550Z,19.53
2017-12-21T18:12:54.002Z,19.50
2017-12-21T18:15:21.425Z,20.10
2017-12-21T18:17:48.849Z,21.50
2017-12-21T18:20:16.262Z,20.23
2017-12-21T18:22:43.673Z,20.63
2017-12-21T18:25:11.090Z,21.30
2017-12-21T18:27:38.608Z,20.40
2017-12-21T18:30:06.024Z,21.87
2017-12-21T18:32:33.452Z,21.00
2017-12-21T18:35:00.857Z,22.20
2017-12-21T18:37:28.300Z,21.50
2017-12-21T18:39:55.714Z,20.43
2017-12-21T18:42:23.130Z,21.20
2017-12-21T18:44:50.565Z,21.00
2017-12-21T18:47:18.762Z,21.00
2017-12-21T18:49:46.178Z,20.77
2017-12-21T18:52:13.619Z,20.47
2017-12-21T18:54:41.042Z,20.50
2017-12-21T18:57:08.447Z,21.30
2017-12-21T18:59:35.861Z,19.80
2017-12-21T19:02:03.281Z,19.33
2017-12-21T19:04:30.718Z,20.60
2017-12-21T19:06:58.142Z,20.27
2017-12-21T19:09:25.590Z,20.37
2017-12-21T19:11:53.054Z,21.33
2017-12-21T19:14:20.503Z,21.03
2017-12-21T19:16:48.685Z,22.40
2017-12-21T19:19:16.866Z,20.27
2017-12-21T19:21:45.050Z,21.97
2017-12-21T19:24:13.234Z,22.07
2017-12-21T19:26:41.429Z,22.40
2017-12-21T19:29:09.618Z,21.83
2017-12-21T19:31:37.827Z,23.20
2017-12-21T19:34:05.233Z,22.53
2017-12-21T19:36:32.658Z,23.17
2017-12-21T19:39:00.131Z,25.57
2017-12-21T19:41:28.287Z,24.57
2017-12-21T19:43:56.461Z,25.00
2017-12-21T19:46:23.966Z,25.13
2017-12-21T19:48:51.457Z,28.13
2017-12-21T19:51:18.862Z,26.10
2017-12-21T19:53:46.274Z,26.00
2017-12-21T19:56:13.748Z,26.70
2017-12-21T19:58:41.173Z,26.00
2017-12-21T20:01:09.408Z,26.03
2017-12-21T20:03:36.815Z,25.13
2017-12-21T20:06:04.243Z,25.40
2017-12-21T20:08:31.654Z,25.50
2017-12-21T20:10:59.088Z,26.63
2017-12-21T20:13:26.509Z,26.70
2017-12-21T20:15:54.742Z,26.80
2017-12-21T20:18:22.914Z,26.70
2017-12-21T20:20:50.333Z,26.83
2017-12-21T20:23:17.747Z,27.00
2017-12-21T20:25:45.182Z,26.50
2017-12-21T20:28:13.406Z,27.07
2017-12-21T20:30:40.886Z,27.10
2017-12-21T20:33:08.394Z,27.20
2017-12-21T20:35:35.919Z,26.83
2017-12-21T20:38:03.410Z,27.37
2017-12-21T20:40:30.845Z,26.23
2017-12-21T20:42:58.271Z,27.40
2017-12-21T20:45:25.790Z,27.03
2017-12-21T20:47:53.204Z,26.67
2017-12-21T20:50:20.638Z,26.73
2017-12-21T20:52:48.051Z,26.37
2017-12-21T20:55:15.489Z,28.67
2017-12-21T20:57:42.913Z,28.17
2017-12-21T21:00:11.118Z,28.00
2017-12-21T21:02:38.562Z,26.70
2017-12-21T21:05:06.766Z,26.80
2017-12-21T21:07:34.182Z,27.30
2017-12-21T21:10:01.766Z,26.83
2017-12-21T21:12:29.286Z,28.53
2017-12-21T21:14:56.695Z,28.77
2017-12-21T21:17:24.131Z,27.17
2017-12-21T21:19:51.550Z,27.73
2017-12-21T21:22:19.783Z,29.17
2017-12-21T21:24:47.242Z,28.50
2017-12-21T21:27:14.696Z,28.23
2017-12-21T21:29:42.175Z,28.60
2017-12-21T21:32:09.613Z,29.80
2017-12-21T21:34:37.052Z,27.93
2017-12-21T21:37:04.471Z,28.40
2017-12-21T21:39:31.895Z,28.63
2017-12-21T21:41:59.339Z,27.10
2017-12-21T21:44:26.794Z,27.27
2017-12-21T21:46:54.276Z,26.53
2017-12-21T21:49:21.711Z,26.70
2017-12-21T21:51:49.211Z,27.53
2017-12-21T21:54:17.435Z,26.03
2017-12-21T21:56:44.868Z,27.73
2017-12-21T21:59:13.082Z,25.17
2017-12-21T22:01:40.527Z,24.20
2017-12-21T22:04:08.036Z,26.17
2017-12-21T22:06:35.525Z,27.30
2017-12-21T22:09:03.747Z,27.03
2017-12-21T22:11:31.198Z,27.20
2017-12-21T22:13:58.633Z,26.20
2017-12-21T22:16:26.927Z,26.33
2017-12-21T22:18:54.364Z,26.20
2017-12-21T22:21:21.770Z,24.13
2017-12-21T22:23:49.221Z,25.93
2017-12-21T22:26:16.681Z,23.47
2017-12-21T22:28:44.187Z,21.80
2017-12-21T22:31:12.378Z,25.97
2017-12-21T22:33:39.843Z,25.80
2017-12-21T22:36:07.342Z,23.87
2017-12-21T22:38:34.833Z,24.13
2017-12-21T22:41:02.289Z,23.60
2017-12-21T22:43:29.778Z,24.90
2017-12-21T22:45:57.188Z,25.53
2017-12-21T22:48:24.691Z,25.20
2017-12-21T22:50:52.120Z,24.20
2017-12-21T22:53:19.538Z,24.43
2017-12-21T22:55:46.977Z,23.40
2017-12-21T22:58:14.390Z,24.03
2017-12-21T23:00:41.914Z,24.47
2017-12-21T23:03:09.329Z,24.33
2017-12-21T23:05:36.738Z,24.90
2017-12-21T23:08:04.141Z,23.10
2017-12-21T23:10:31.571Z,23.70
2017-12-21T23:12:59.048Z,24.10
2017-12-21T23:15:26.466Z,24.60
2017-12-21T23:17:53.941Z,22.20
2017-12-21T23:20:21.357Z,25.40
2017-12-21T23:22:48.770Z,23.70
2017-12-21T23:25:16.186Z,24.57
2017-12-21T23:27:43.665Z,24.47
2017-12-21T23:30:11.137Z,24.57
2017-12-21T23:32:38.598Z,24.00
2017-12-21T23:35:06.067Z,25.03
2017-12-21T23:37:34.226Z,25.27
2017-12-21T23:40:02.406Z,25.30
2017-12-21T23:42:30.616Z,25.50
2017-12-21T23:44:58.040Z,26.00
2017-12-21T23:47:25.471Z,27.17
2017-12-21T23:49:52.893Z,27.17
2017-12-21T23:52:21.115Z,27.23
2017-12-21T23:54:49.298Z,27.60
2017-12-21T23:57:16.734Z,26.63
2017-12-21T23:59:44.234Z,27.87
